createdAt,value
2022-11-27T00:02:41.181Z,99.99
2022-11-27T00:07:41.441Z,99.99
2022-11-27T00:12:40.552Z,99.99
2022-11-27T00:17:41.674Z,99.99
2022-11-27T00:22:42.947Z,99.99
2022-11-27T00:27:44.178Z,99.99
2022-11-27T00:32:45.419Z,99.99
2022-11-27T00:37:46.536Z,99.99
2022-11-27T00:42:47.830Z,99.99
2022-11-27T00:47:49.017Z,99.99
2022-11-27T00:52:50.306Z,99.99
2022-11-27T00:57:51.513Z,99.99
2022-11-27T01:02:52.782Z,99.99
2022-11-27T01:07:54.059Z,99.99
2022-11-27T01:12:56.229Z,99.99
2022-11-27T01:17:55.445Z,99.99
2022-11-27T01:22:57.663Z,99.99
2022-11-27T01:27:56.811Z,99.99
2022-11-27T01:32:57.974Z,97.49
2022-11-27T01:37:59.126Z,95.15
2022-11-27T01:43:00.444Z,92.35
2022-11-27T01:48:02.527Z,90.81
2022-11-27T01:53:01.672Z,86.81
2022-11-27T01:58:03.764Z,92.75
2022-11-27T02:03:03.119Z,91.81
2022-11-27T02:08:04.296Z,90.10
2022-11-27T02:13:05.548Z,93.73
2022-11-27T02:18:06.765Z,97.85
2022-11-27T02:23:08.016Z,98.21
2022-11-27T02:28:09.185Z,97.47
2022-11-27T02:33:10.568Z,97.72
2022-11-27T02:38:11.722Z,98.55
2022-11-27T02:43:12.882Z,99.99
2022-11-27T02:48:14.135Z,99.99
2022-11-27T02:53:15.434Z,98.55
2022-11-27T02:58:16.654Z,98.97
2022-11-27T03:03:17.897Z,99.07
2022-11-27T03:08:20.154Z,99.64
2022-11-27T03:13:20.417Z,99.99
2022-11-27T03:18:19.621Z,99.99
2022-11-27T03:23:20.802Z,99.68
2022-11-27T03:28:22.028Z,99.99
2022-11-27T03:33:23.166Z,99.99
2022-11-27T03:38:24.488Z,99.99
2022-11-27T03:43:25.582Z,99.99
2022-11-27T03:48:26.778Z,99.99
2022-11-27T03:53:28.241Z,99.99
2022-11-27T03:58:27.394Z,99.99
2022-11-27T04:03:27.577Z,99.99
2022-11-27T04:08:28.683Z,99.99
2022-11-27T04:13:29.951Z,99.99
2022-11-27T04:18:31.084Z,99.99
2022-11-27T04:23:32.219Z,99.99
2022-11-27T04:28:33.399Z,99.99
2022-11-27T04:33:34.515Z,99.99
2022-11-27T04:38:36.617Z,99.99
2022-11-27T04:43:35.756Z,99.99
2022-11-27T04:48:35.916Z,99.99
2022-11-27T04:53:37.577Z,99.99
2022-11-27T04:58:36.719Z,99.99
2022-11-27T05:03:37.877Z,99.99
2022-11-27T05:08:39.035Z,99.99
2022-11-27T05:13:40.151Z,99.99
2022-11-27T05:18:41.290Z,99.99
2022-11-27T05:23:42.457Z,99.99
2022-11-27T05:28:43.592Z,99.99
2022-11-27T05:33:44.760Z,99.99
2022-11-27T05:38:45.892Z,99.99
2022-11-27T05:43:47.031Z,99.99
2022-11-27T05:48:48.167Z,99.99
2022-11-27T05:53:49.277Z,99.99
2022-11-27T05:58:50.424Z,99.99
2022-11-27T06:03:52.596Z,99.99
2022-11-27T06:08:51.762Z,99.99
2022-11-27T06:13:54.892Z,99.99
2022-11-27T06:18:54.012Z,99.99
2022-11-27T06:23:54.171Z,99.99
2022-11-27T06:28:55.375Z,99.99
2022-11-27T06:33:56.537Z,99.99
2022-11-27T06:38:58.733Z,99.99
2022-11-27T06:43:57.926Z,99.99
2022-11-27T06:48:59.202Z,99.99
2022-11-27T06:54:00.400Z,99.99
2022-11-27T06:59:01.524Z,99.99
2022-11-27T07:04:02.675Z,99.99
2022-11-27T07:09:03.783Z,99.99
2022-11-27T07:14:04.923Z,99.99
2022-11-27T07:19:08.072Z,99.99
2022-11-27T07:24:08.442Z,99.99
2022-11-27T07:29:07.557Z,99.99
2022-11-27T07:34:14.237Z,99.99
2022-11-27T07:39:09.748Z,99.99
2022-11-27T07:44:10.929Z,99.99
2022-11-27T07:49:12.106Z,99.99
2022-11-27T07:54:13.220Z,99.99
2022-11-27T07:59:14.383Z,99.91
2022-11-27T08:04:15.573Z,99.76
2022-11-27T08:09:16.762Z,99.29
2022-11-27T08:14:20.784Z,99.15
2022-11-27T08:19:17.954Z,98.11
2022-11-27T08:24:19.113Z,97.13
2022-11-27T08:29:20.261Z,96.77
2022-11-27T08:34:21.393Z,93.40
2022-11-27T08:39:23.509Z,92.58
2022-11-27T08:44:23.696Z,92.54
2022-11-27T08:49:23.803Z,92.29
2022-11-27T08:54:22.951Z,91.52
2022-11-27T08:59:25.080Z,88.81
2022-11-27T09:04:24.263Z,89.50
2022-11-27T09:09:26.375Z,86.86
2022-11-27T09:14:25.485Z,86.82
2022-11-27T09:19:26.629Z,83.25
2022-11-27T09:24:27.727Z,81.63
2022-11-27T09:29:27.889Z,84.91
2022-11-27T09:34:31.298Z,80.90
2022-11-27T09:39:29.527Z,84.70
2022-11-27T09:44:29.677Z,85.35
2022-11-27T09:49:28.804Z,84.38
2022-11-27T09:54:30.094Z,81.48
2022-11-27T09:59:32.235Z,83.80
2022-11-27T10:04:50.924Z,84.52
2022-11-27T10:09:31.406Z,86.31
2022-11-27T10:14:32.634Z,85.83
2022-11-27T10:19:34.861Z,82.68
2022-11-27T10:24:33.997Z,83.93
2022-11-27T10:29:35.110Z,84.20
2022-11-27T10:34:36.234Z,84.12
2022-11-27T10:39:39.346Z,81.74
2022-11-27T10:44:38.863Z,81.46
2022-11-27T10:49:38.238Z,80.63
2022-11-27T10:54:40.744Z,78.91
2022-11-27T10:59:40.218Z,81.21
2022-11-27T11:04:41.350Z,79.36
2022-11-27T11:09:42.524Z,75.39
2022-11-27T11:14:44.653Z,77.98
2022-11-27T11:19:44.778Z,71.26
2022-11-27T11:24:43.921Z,74.40
2022-11-27T11:29:45.070Z,72.78
2022-11-27T11:34:46.326Z,72.03
2022-11-27T11:39:47.488Z,70.86
2022-11-27T11:44:48.702Z,72.85
2022-11-27T11:49:49.818Z,72.33
2022-11-27T11:54:51.165Z,70.34
2022-11-27T11:59:52.322Z,73.54
2022-11-27T12:04:53.480Z,70.79
2022-11-27T12:09:54.653Z,72.51
2022-11-27T12:14:56.798Z,73.13
2022-11-27T12:19:55.893Z,71.44
2022-11-27T12:24:57.116Z,71.37
2022-11-27T12:29:58.233Z,73.57
2022-11-27T12:34:59.579Z,74.08
2022-11-27T12:40:00.760Z,74.36
2022-11-27T12:45:01.964Z,73.88
2022-11-27T12:50:03.192Z,74.60
2022-11-27T12:55:06.312Z,75.01
2022-11-27T13:00:05.565Z,76.35
2022-11-27T13:05:06.647Z,75.36
2022-11-27T13:10:07.891Z,79.11
2022-11-27T13:15:09.285Z,80.32
2022-11-27T13:20:10.399Z,80.32
2022-11-27T13:25:11.612Z,79.69
2022-11-27T13:30:12.832Z,78.52
2022-11-27T13:35:14.092Z,80.32
2022-11-27T13:40:16.202Z,80.35
2022-11-27T13:45:16.322Z,80.04
2022-11-27T13:50:15.567Z,79.83
2022-11-27T13:55:17.926Z,79.11
2022-11-27T14:00:18.087Z,79.73
2022-11-27T14:05:17.329Z,80.04
2022-11-27T14:10:18.642Z,81.52
2022-11-27T14:15:19.835Z,83.42
2022-11-27T14:20:20.945Z,84.50
2022-11-27T14:25:22.025Z,83.98
2022-11-27T14:30:23.128Z,83.42
2022-11-27T14:35:24.238Z,84.08
2022-11-27T14:40:25.332Z,82.90
2022-11-27T14:45:26.688Z,84.05
2022-11-27T14:50:27.962Z,82.39
2022-11-27T14:55:34.448Z,81.91
2022-11-27T15:00:29.232Z,83.09
2022-11-27T15:05:30.614Z,83.71
2022-11-27T15:10:31.800Z,84.37
2022-11-27T15:15:33.098Z,86.41
2022-11-27T15:20:36.417Z,86.41
2022-11-27T15:25:35.909Z,87.14
2022-11-27T15:30:35.140Z,88.26
2022-11-27T15:35:36.464Z,88.05
2022-11-27T15:40:37.885Z,88.46
2022-11-27T15:45:39.386Z,90.56
2022-11-27T15:50:38.904Z,91.49
2022-11-27T15:55:40.363Z,91.28
2022-11-27T16:00:42.607Z,90.66
2022-11-27T16:05:42.308Z,89.79
2022-11-27T16:10:46.545Z,89.31
2022-11-27T16:15:41.866Z,89.52
2022-11-27T16:20:43.232Z,90.70
2022-11-27T16:25:44.769Z,94.12
2022-11-27T16:30:44.090Z,94.01
2022-11-27T16:35:45.538Z,93.03
2022-11-27T16:40:44.864Z,92.88
2022-11-27T16:45:46.417Z,91.80
2022-11-27T16:50:45.696Z,91.70
2022-11-27T16:55:49.103Z,91.91
2022-11-27T17:00:49.114Z,94.80
2022-11-27T17:05:51.452Z,94.59
2022-11-27T17:10:46.156Z,94.24
2022-11-27T17:15:48.570Z,93.30
2022-11-27T17:20:48.853Z,92.74
2022-11-27T17:25:48.241Z,92.53
2022-11-27T17:30:49.648Z,92.11
2022-11-27T17:35:50.975Z,93.51
2022-11-27T17:40:52.395Z,93.47
2022-11-27T17:45:52.678Z,92.49
2022-11-27T17:50:52.140Z,92.69
2022-11-27T17:55:51.716Z,92.90
2022-11-27T18:00:50.971Z,93.32
2022-11-27T18:05:52.447Z,92.66
2022-11-27T18:10:51.881Z,92.03
2022-11-27T18:15:53.266Z,92.38
2022-11-27T18:20:54.547Z,94.09
2022-11-27T18:25:56.043Z,94.30
2022-11-27T18:30:55.481Z,94.71
2022-11-27T18:35:54.901Z,94.92
2022-11-27T18:40:56.363Z,94.92
2022-11-27T18:45:56.841Z,94.26
2022-11-27T18:51:00.494Z,93.07
2022-11-27T18:55:56.889Z,92.66
2022-11-27T19:00:56.537Z,92.30
2022-11-27T19:05:55.889Z,92.45
2022-11-27T19:10:58.328Z,91.47
2022-11-27T19:15:58.861Z,91.89
2022-11-27T19:20:59.056Z,92.10
2022-11-27T19:25:58.661Z,92.10
2022-11-27T19:30:58.245Z,91.27
2022-11-27T19:35:58.551Z,92.30
2022-11-27T19:40:58.087Z,92.97
2022-11-27T19:45:57.639Z,94.36
2022-11-27T19:50:57.137Z,94.01
2022-11-27T19:55:57.593Z,93.33
2022-11-27T20:00:57.272Z,93.49
2022-11-27T20:05:59.600Z,93.07
2022-11-27T20:10:58.237Z,93.02
2022-11-27T20:15:57.855Z,95.09
2022-11-27T20:20:58.301Z,95.19
2022-11-27T20:25:57.930Z,95.50
2022-11-27T20:30:57.568Z,95.25
2022-11-27T20:35:57.145Z,95.36
2022-11-27T20:40:56.750Z,95.50
2022-11-27T20:45:56.350Z,95.81
2022-11-27T20:51:00.204Z,95.25
2022-11-27T20:55:55.437Z,95.29
2022-11-27T21:00:56.833Z,96.27
2022-11-27T21:05:56.138Z,95.71
2022-11-27T21:10:56.419Z,95.19
2022-11-27T21:15:58.748Z,96.17
2022-11-27T21:20:57.936Z,96.17
2022-11-27T21:25:59.366Z,96.69
2022-11-27T21:30:58.773Z,95.86
2022-11-27T21:35:59.946Z,96.06
2022-11-27T21:41:02.062Z,96.62
2022-11-27T21:46:01.257Z,97.40
2022-11-27T21:51:02.700Z,97.50
2022-11-27T21:56:05.143Z,97.50
2022-11-27T22:01:04.304Z,98.02
2022-11-27T22:06:06.492Z,99.32
2022-11-27T22:11:05.593Z,99.21
2022-11-27T22:16:07.760Z,99.11
2022-11-27T22:21:06.984Z,98.85
2022-11-27T22:26:08.085Z,98.33
2022-11-27T22:31:09.278Z,98.50
2022-11-27T22:36:10.377Z,97.56
2022-11-27T22:41:11.697Z,97.04
2022-11-27T22:46:12.874Z,97.04
2022-11-27T22:51:14.995Z,97.77
2022-11-27T22:56:14.226Z,97.10
2022-11-27T23:01:15.408Z,96.48
2022-11-27T23:06:16.574Z,96.02
2022-11-27T23:11:17.696Z,95.81
2022-11-27T23:16:20.835Z,96.64
2022-11-27T23:21:20.945Z,96.64
2022-11-27T23:26:20.049Z,97.16
2022-11-27T23:31:36.478Z,96.50
2022-11-27T23:36:21.096Z,94.79
2022-11-27T23:41:22.322Z,94.33
2022-11-27T23:46:23.451Z,94.23
2022-11-27T23:51:24.569Z,94.12
2022-11-27T23:56:25.663Z,93.81
